createdAt,value
2024-05-09T00:00:50.166Z,2.15
2024-05-09T00:03:17.845Z,1.65
2024-05-09T00:05:45.605Z,2.53
2024-05-09T00:08:13.477Z,1.60
2024-05-09T00:10:41.640Z,2.72
2024-05-09T00:13:10.423Z,1.40
2024-05-09T00:15:38.553Z,1.13
2024-05-09T00:18:07.760Z,1.70
2024-05-09T00:20:39.484Z,2.28
2024-05-09T00:23:13.799Z,1.20
2024-05-09T00:25:44.459Z,1.85
2024-05-09T00:28:13.077Z,1.50
2024-05-09T00:30:40.944Z,3.00
2024-05-09T00:33:10.381Z,1.33
2024-05-09T00:35:39.325Z,2.03
2024-05-09T00:38:07.345Z,2.83
2024-05-09T00:40:40.002Z,1.35
2024-05-09T00:43:10.401Z,1.20
2024-05-09T00:45:38.243Z,1.10
2024-05-09T00:48:09.537Z,1.83
2024-05-09T00:50:41.434Z,2.97
2024-05-09T00:53:12.095Z,3.20
2024-05-09T00:55:40.149Z,2.78
2024-05-09T00:58:08.729Z,1.25
2024-05-09T01:00:39.820Z,1.52
2024-05-09T01:03:10.992Z,1.42
2024-05-09T01:05:40.926Z,1.00
2024-05-09T01:08:09.346Z,0.95
2024-05-09T01:10:44.181Z,2.13
2024-05-09T01:13:15.472Z,1.73
2024-05-09T01:15:45.278Z,1.17
2024-05-09T01:18:14.596Z,1.23
2024-05-09T01:20:45.484Z,2.05
2024-05-09T01:23:16.426Z,1.48
2024-05-09T01:25:45.944Z,1.00
2024-05-09T01:28:14.293Z,1.23
2024-05-09T01:30:41.850Z,1.73
2024-05-09T01:33:11.338Z,1.17
2024-05-09T01:35:42.201Z,1.63
2024-05-09T01:38:14.039Z,1.48
2024-05-09T01:40:41.942Z,0.95
2024-05-09T01:43:10.877Z,1.20
2024-05-09T01:45:39.850Z,0.88
2024-05-09T01:48:08.323Z,1.17
2024-05-09T01:50:40.151Z,0.90
2024-05-09T01:53:10.815Z,0.80
2024-05-09T01:55:38.782Z,1.00
2024-05-09T01:58:06.533Z,1.08
2024-05-09T02:00:39.524Z,1.10
2024-05-09T02:03:13.881Z,2.42
2024-05-09T02:05:44.710Z,2.63
2024-05-09T02:08:15.982Z,4.53
2024-05-09T02:10:44.766Z,1.23
2024-05-09T02:13:12.677Z,1.90
2024-05-09T02:15:40.291Z,1.98
2024-05-09T02:18:09.009Z,1.70
2024-05-09T02:20:38.977Z,2.28
2024-05-09T02:23:07.231Z,2.30
2024-05-09T02:25:35.243Z,2.67
2024-05-09T02:28:02.974Z,2.95
2024-05-09T02:30:38.838Z,1.95
2024-05-09T02:33:11.302Z,3.88
2024-05-09T02:35:40.922Z,2.05
2024-05-09T02:38:09.939Z,2.35
2024-05-09T02:40:39.491Z,2.17
2024-05-09T02:43:09.949Z,5.55
2024-05-09T02:48:06.964Z,2.33
2024-05-09T02:50:38.986Z,4.75
2024-05-09T02:53:11.997Z,6.65
2024-05-09T02:55:40.060Z,4.53
2024-05-09T02:58:08.225Z,7.20
2024-05-09T03:00:39.772Z,5.68
2024-05-09T03:03:11.141Z,3.20
2024-05-09T03:05:41.090Z,2.13
2024-05-09T03:08:09.184Z,4.20
2024-05-09T03:10:38.714Z,3.83
2024-05-09T03:13:08.218Z,3.65
2024-05-09T03:15:36.052Z,3.67
2024-05-09T03:18:04.161Z,4.63
2024-05-09T03:20:34.869Z,4.05
2024-05-09T03:23:04.990Z,3.15
2024-05-09T03:25:33.374Z,3.15
2024-05-09T03:28:01.197Z,4.70
2024-05-09T03:30:36.233Z,5.60
2024-05-09T03:33:13.828Z,4.32
2024-05-09T03:35:42.355Z,7.88
2024-05-09T03:38:10.120Z,10.18
2024-05-09T03:40:38.057Z,5.47
2024-05-09T03:43:05.801Z,2.45
2024-05-09T03:45:33.329Z,5.13
2024-05-09T03:48:01.047Z,3.63
2024-05-09T03:50:33.922Z,4.80
2024-05-09T03:53:03.549Z,2.67
2024-05-09T03:55:31.658Z,2.47
2024-05-09T03:57:59.443Z,2.85
2024-05-09T04:00:35.394Z,3.47
2024-05-09T04:03:09.145Z,3.55
2024-05-09T04:05:41.024Z,3.67
2024-05-09T04:10:37.884Z,3.17
2024-05-09T04:13:05.739Z,6.30
2024-05-09T04:15:33.540Z,4.05
2024-05-09T04:18:01.990Z,4.80
2024-05-09T04:20:37.664Z,5.07
2024-05-09T04:23:09.032Z,4.35
2024-05-09T04:25:37.261Z,6.78
2024-05-09T04:28:05.368Z,17.75
2024-05-09T04:30:38.541Z,4.32
2024-05-09T04:33:11.028Z,3.85
2024-05-09T04:35:42.684Z,2.97
2024-05-09T04:38:10.946Z,3.13
2024-05-09T04:40:38.716Z,3.15
2024-05-09T04:43:07.506Z,4.85
2024-05-09T04:45:35.815Z,3.63
2024-05-09T04:48:04.109Z,2.72
2024-05-09T04:50:36.990Z,3.58
2024-05-09T04:53:10.674Z,2.90
2024-05-09T04:55:39.881Z,4.32
2024-05-09T04:58:11.961Z,3.15
2024-05-09T05:00:41.024Z,3.92
2024-05-09T05:03:13.020Z,2.67
2024-05-09T05:05:43.744Z,2.92
2024-05-09T05:08:13.360Z,60.50
2024-05-09T05:10:41.635Z,2.55
2024-05-09T05:13:25.177Z,6.40
2024-05-09T05:15:57.606Z,5.57
2024-05-09T05:18:26.892Z,4.13
2024-05-09T05:20:56.157Z,2.50
2024-05-09T05:23:24.395Z,3.53
2024-05-09T05:25:53.446Z,3.00
2024-05-09T05:28:22.238Z,3.75
2024-05-09T05:30:56.365Z,3.53
2024-05-09T05:33:24.082Z,3.47
2024-05-09T05:35:51.732Z,6.20
2024-05-09T05:38:21.289Z,4.45
2024-05-09T05:40:50.369Z,3.60
2024-05-09T05:43:18.900Z,2.58
2024-05-09T05:45:47.024Z,2.30
2024-05-09T05:48:17.170Z,4.38
2024-05-09T05:50:45.612Z,2.88
2024-05-09T05:53:13.716Z,3.53
2024-05-09T05:55:41.998Z,3.42
2024-05-09T05:58:14.713Z,4.70
2024-05-09T06:00:43.130Z,3.53
2024-05-09T06:03:12.773Z,2.72
2024-05-09T06:05:45.189Z,3.63
2024-05-09T06:08:13.017Z,3.25
2024-05-09T06:10:41.721Z,8.80
2024-05-09T06:13:13.629Z,2.92
2024-05-09T06:15:42.052Z,5.80
2024-05-09T06:18:11.556Z,3.80
2024-05-09T06:20:42.358Z,3.05
2024-05-09T06:23:11.217Z,3.13
2024-05-09T06:25:39.155Z,3.33
2024-05-09T06:28:07.038Z,2.58
2024-05-09T06:30:40.411Z,2.47
2024-05-09T06:33:11.833Z,4.05
2024-05-09T06:35:41.414Z,5.57
2024-05-09T06:38:09.924Z,2.35
2024-05-09T06:40:40.471Z,2.72
2024-05-09T06:43:18.105Z,6.50
2024-05-09T06:45:50.582Z,4.05
2024-05-09T06:48:19.737Z,3.42
2024-05-09T06:50:48.074Z,4.20
2024-05-09T06:53:16.175Z,4.63
2024-05-09T06:55:44.167Z,4.00
2024-05-09T06:58:11.804Z,3.00
2024-05-09T07:00:41.466Z,4.70
2024-05-09T07:03:11.864Z,10.55
2024-05-09T07:05:41.056Z,3.13
2024-05-09T07:08:08.844Z,2.95
2024-05-09T07:10:37.297Z,3.30
2024-05-09T07:13:11.784Z,4.38
2024-05-09T07:15:39.708Z,4.80
2024-05-09T07:18:17.701Z,3.90
2024-05-09T07:20:47.026Z,3.30
2024-05-09T07:23:16.015Z,3.45
2024-05-09T07:25:43.826Z,4.80
2024-05-09T07:28:15.533Z,2.97
2024-05-09T07:30:44.323Z,2.20
2024-05-09T07:33:24.342Z,3.47
2024-05-09T07:35:52.970Z,2.17
2024-05-09T07:38:20.958Z,3.50
2024-05-09T07:40:48.810Z,2.88
2024-05-09T07:43:16.591Z,7.13
2024-05-09T07:45:51.563Z,10.55
2024-05-09T07:52:39.079Z,3.28
2024-05-09T07:53:47.500Z,2.42
2024-05-09T07:56:20.102Z,2.28
2024-05-09T07:58:51.339Z,4.38
2024-05-09T08:01:19.637Z,3.08
2024-05-09T08:03:47.738Z,2.20
2024-05-09T08:06:15.484Z,2.47
2024-05-09T08:08:43.236Z,2.33
2024-05-09T08:11:10.898Z,2.50
2024-05-09T08:13:38.500Z,4.10
2024-05-09T08:16:06.450Z,3.15
2024-05-09T08:18:34.281Z,4.63
2024-05-09T08:21:01.986Z,2.05
2024-05-09T08:23:29.571Z,2.75
2024-05-09T08:25:57.167Z,2.58
2024-05-09T08:28:24.785Z,4.28
2024-05-09T08:30:52.617Z,4.10
2024-05-09T08:33:20.565Z,2.78
2024-05-09T08:35:48.180Z,2.60
2024-05-09T08:38:15.908Z,3.97
2024-05-09T08:40:43.724Z,3.33
2024-05-09T08:43:12.741Z,3.90
2024-05-09T08:45:45.167Z,5.32
2024-05-09T08:48:15.455Z,2.95
2024-05-09T08:53:12.536Z,5.57
2024-05-09T08:55:43.424Z,2.47
2024-05-09T08:58:15.404Z,3.03
2024-05-09T09:00:45.227Z,3.53
2024-05-09T09:03:16.924Z,3.88
2024-05-09T09:05:49.905Z,2.25
2024-05-09T09:08:17.504Z,4.63
2024-05-09T09:13:27.681Z,3.65
2024-05-09T09:15:59.150Z,2.83
2024-05-09T09:18:27.492Z,4.10
2024-05-09T09:20:55.952Z,3.40
2024-05-09T09:23:23.619Z,8.63
2024-05-09T09:25:52.186Z,4.00
2024-05-09T09:28:19.894Z,3.95
2024-05-09T09:30:47.498Z,2.60
2024-05-09T09:33:15.218Z,3.03
2024-05-09T09:35:42.788Z,8.07
2024-05-09T09:38:11.217Z,2.70
2024-05-09T09:40:44.753Z,3.05
2024-05-09T09:43:19.706Z,2.15
2024-05-09T09:45:59.966Z,5.75
2024-05-09T09:48:28.396Z,3.22
2024-05-09T09:50:56.334Z,8.07
2024-05-09T09:53:24.446Z,10.68
2024-05-09T09:55:53.012Z,3.22
2024-05-09T09:58:21.027Z,6.22
2024-05-09T10:00:48.899Z,4.78
2024-05-09T10:03:16.598Z,10.30
2024-05-09T10:05:47.052Z,5.00
2024-05-09T10:08:16.151Z,7.57
2024-05-09T10:10:46.857Z,5.53
2024-05-09T10:13:14.843Z,7.85
2024-05-09T10:15:52.387Z,2.88
2024-05-09T10:18:27.852Z,9.82
2024-05-09T10:20:57.125Z,3.53
2024-05-09T10:23:25.558Z,6.60
2024-05-09T10:26:00.302Z,2.28
2024-05-09T10:28:35.794Z,7.57
2024-05-09T10:31:11.286Z,4.25
2024-05-09T10:33:39.504Z,4.07
2024-05-09T10:36:19.662Z,4.32
2024-05-09T10:38:47.375Z,3.05
2024-05-09T10:41:15.087Z,3.42
2024-05-09T10:43:44.259Z,5.63
2024-05-09T10:46:12.597Z,2.50
2024-05-09T10:48:40.936Z,5.45
2024-05-09T10:51:08.821Z,3.53
2024-05-09T10:53:42.918Z,4.20
2024-05-09T10:56:10.913Z,5.22
2024-05-09T10:58:38.828Z,3.08
2024-05-09T11:01:07.500Z,3.53
2024-05-09T11:03:36.171Z,5.85
2024-05-09T11:06:04.175Z,7.85
2024-05-09T11:08:32.988Z,8.30
2024-05-09T11:11:03.253Z,4.63
2024-05-09T11:13:31.931Z,4.90
2024-05-09T11:16:00.840Z,4.80
2024-05-09T11:18:33.242Z,9.30
2024-05-09T11:21:03.721Z,5.20
2024-05-09T11:23:31.710Z,2.75
2024-05-09T11:25:59.589Z,2.58
2024-05-09T11:28:31.136Z,4.40
2024-05-09T11:31:06.797Z,4.05
2024-05-09T11:33:37.185Z,3.95
2024-05-09T11:36:05.425Z,7.30
2024-05-09T11:38:33.515Z,3.75
2024-05-09T11:41:01.133Z,4.80
2024-05-09T11:43:28.708Z,6.95
2024-05-09T11:45:57.587Z,5.10
2024-05-09T11:48:26.180Z,5.10
2024-05-09T11:50:55.375Z,4.53
2024-05-09T11:53:23.145Z,3.97
2024-05-09T11:55:50.966Z,8.52
2024-05-09T11:58:19.360Z,7.07
2024-05-09T12:00:47.492Z,3.85
2024-05-09T12:03:15.273Z,5.50
2024-05-09T12:05:43.071Z,3.22
2024-05-09T12:08:10.889Z,3.75
2024-05-09T12:10:38.709Z,6.43
2024-05-09T12:13:07.376Z,3.08
2024-05-09T12:15:39.040Z,4.97
2024-05-09T12:18:08.229Z,4.53
2024-05-09T12:20:39.134Z,8.30
2024-05-09T12:23:09.426Z,3.80
2024-05-09T12:25:38.177Z,4.50
2024-05-09T12:28:06.172Z,14.50
2024-05-09T12:30:38.274Z,4.72
2024-05-09T12:33:12.532Z,4.88
2024-05-09T12:35:43.475Z,10.73
2024-05-09T12:38:13.297Z,4.40
2024-05-09T12:40:40.940Z,6.13
2024-05-09T12:43:09.836Z,4.50
2024-05-09T12:45:38.841Z,5.60
2024-05-09T12:48:08.673Z,9.50
2024-05-09T12:50:36.999Z,5.13
2024-05-09T12:53:05.333Z,5.78
2024-05-09T12:55:41.311Z,7.30
2024-05-09T12:58:17.457Z,4.40
2024-05-09T13:00:45.955Z,4.60
2024-05-09T13:03:14.029Z,6.13
2024-05-09T13:05:42.249Z,5.20
2024-05-09T13:08:10.007Z,5.00
2024-05-09T13:10:37.682Z,11.90
2024-05-09T13:13:05.542Z,6.25
2024-05-09T13:15:40.131Z,6.07
2024-05-09T13:18:07.843Z,5.43
2024-05-09T13:20:36.739Z,8.57
2024-05-09T13:23:08.734Z,5.57
2024-05-09T13:25:37.689Z,8.52
2024-05-09T13:28:06.089Z,7.18
2024-05-09T13:30:39.898Z,2.92
2024-05-09T13:33:11.535Z,5.82
2024-05-09T13:35:41.978Z,3.13
2024-05-09T13:38:14.081Z,5.07
2024-05-09T13:40:41.922Z,3.00
2024-05-09T13:43:09.670Z,5.20
2024-05-09T13:45:37.336Z,9.45
2024-05-09T13:48:07.118Z,5.70
2024-05-09T13:50:36.649Z,4.32
2024-05-09T13:53:06.709Z,7.03
2024-05-09T13:55:35.646Z,4.18
2024-05-09T13:58:03.669Z,4.70
2024-05-09T14:00:42.190Z,4.60
2024-05-09T14:03:15.408Z,4.03
2024-05-09T14:05:43.888Z,3.70
2024-05-09T14:08:12.169Z,6.03
2024-05-09T14:10:44.645Z,4.78
2024-05-09T14:13:13.417Z,7.70
2024-05-09T14:15:41.693Z,2.83
2024-05-09T14:18:13.081Z,3.08
2024-05-09T14:20:41.825Z,2.88
2024-05-09T14:23:09.725Z,8.73
2024-05-09T14:25:42.047Z,5.13
2024-05-09T14:28:11.313Z,18.70
2024-05-09T14:30:39.686Z,2.72
2024-05-09T14:33:08.639Z,6.50
2024-05-09T14:35:38.406Z,9.02
2024-05-09T14:38:07.575Z,5.28
2024-05-09T14:40:41.033Z,9.45
2024-05-09T14:43:12.393Z,4.60
2024-05-09T14:45:40.620Z,4.63
2024-05-09T14:48:08.964Z,5.55
2024-05-09T14:50:39.241Z,4.60
2024-05-09T14:53:08.997Z,5.25
2024-05-09T14:55:38.073Z,4.05
2024-05-09T14:58:10.110Z,4.20
2024-05-09T15:00:41.645Z,3.25
2024-05-09T15:03:12.508Z,7.32
2024-05-09T15:05:41.282Z,4.97
2024-05-09T15:08:09.230Z,4.88
2024-05-09T15:10:37.778Z,4.53
2024-05-09T15:13:07.911Z,4.72
2024-05-09T15:15:37.595Z,6.68
2024-05-09T15:18:06.386Z,8.80
2024-05-09T15:20:36.609Z,5.10
2024-05-09T15:23:06.748Z,5.88
2024-05-09T15:25:37.046Z,6.78
2024-05-09T15:28:05.343Z,4.03
2024-05-09T15:30:34.451Z,4.53
2024-05-09T15:33:06.874Z,5.20
2024-05-09T15:35:35.938Z,3.83
2024-05-09T15:38:04.367Z,3.42
2024-05-09T15:40:38.959Z,5.35
2024-05-09T15:43:09.717Z,5.85
2024-05-09T15:45:38.829Z,3.97
2024-05-09T15:48:07.385Z,4.30
2024-05-09T15:50:39.334Z,4.03
2024-05-09T15:53:10.296Z,5.25
2024-05-09T15:55:38.727Z,5.55
2024-05-09T15:58:07.205Z,4.90
2024-05-09T16:00:40.267Z,7.22
2024-05-09T16:03:11.280Z,4.13
2024-05-09T16:05:41.286Z,3.70
2024-05-09T16:08:09.554Z,5.32
2024-05-09T16:10:43.532Z,4.70
2024-05-09T16:13:12.648Z,3.30
2024-05-09T16:15:40.636Z,3.97
2024-05-09T16:18:08.622Z,6.43
2024-05-09T16:20:40.286Z,5.63
2024-05-09T16:23:10.517Z,3.97
2024-05-09T16:25:38.461Z,8.68
2024-05-09T16:28:09.869Z,4.85
2024-05-09T16:30:40.856Z,3.75
2024-05-09T16:33:09.602Z,3.08
2024-05-09T16:35:37.986Z,5.63
2024-05-09T16:38:09.124Z,5.05
2024-05-09T16:40:40.252Z,7.10
2024-05-09T16:43:13.420Z,3.47
2024-05-09T16:45:45.323Z,4.88
2024-05-09T16:48:14.253Z,3.40
2024-05-09T16:50:42.073Z,3.58
2024-05-09T16:53:09.663Z,6.55
2024-05-09T16:55:37.305Z,3.65
2024-05-09T16:58:06.776Z,3.90
2024-05-09T17:00:40.935Z,4.55
2024-05-09T17:03:12.340Z,6.60
2024-05-09T17:05:41.237Z,5.07
2024-05-09T17:08:09.171Z,4.60
2024-05-09T17:10:37.108Z,3.95
2024-05-09T17:13:06.835Z,4.85
2024-05-09T17:15:36.930Z,4.35
2024-05-09T17:18:05.635Z,3.65
2024-05-09T17:20:36.233Z,4.22
2024-05-09T17:23:13.372Z,4.82
2024-05-09T17:25:42.040Z,6.43
2024-05-09T17:28:10.012Z,4.65
2024-05-09T17:30:39.776Z,4.30
2024-05-09T17:33:10.233Z,4.05
2024-05-09T17:35:38.966Z,6.05
2024-05-09T17:38:07.388Z,37.65
2024-05-09T17:40:37.306Z,34.67
2024-05-09T17:43:08.551Z,33.80
2024-05-09T17:45:39.226Z,11.02
2024-05-09T17:48:08.347Z,4.55
2024-05-09T17:50:37.683Z,4.25
2024-05-09T17:53:06.519Z,8.13
2024-05-09T17:55:34.544Z,8.10
2024-05-09T17:58:02.758Z,4.95
2024-05-09T18:00:37.819Z,7.25
2024-05-09T18:03:11.800Z,5.05
2024-05-09T18:05:44.517Z,6.65
2024-05-09T18:08:14.339Z,5.90
2024-05-09T18:10:42.721Z,3.88
2024-05-09T18:13:11.520Z,5.32
2024-05-09T18:15:40.198Z,5.63
2024-05-09T18:18:09.335Z,3.65
2024-05-09T18:20:43.232Z,6.63
2024-05-09T18:23:15.337Z,5.75
2024-05-09T18:25:44.525Z,6.00
2024-05-09T18:28:12.595Z,8.90
2024-05-09T18:30:41.545Z,4.70
2024-05-09T18:33:11.572Z,5.55
2024-05-09T18:35:39.790Z,6.70
2024-05-09T18:38:07.407Z,9.30
2024-05-09T18:40:37.484Z,9.65
2024-05-09T18:43:08.598Z,8.05
2024-05-09T18:45:39.555Z,9.30
2024-05-09T18:48:08.490Z,10.55
2024-05-09T18:50:39.539Z,10.80
2024-05-09T18:53:09.173Z,10.43
2024-05-09T18:55:36.942Z,11.88
2024-05-09T18:58:05.594Z,15.27
2024-05-09T19:00:36.979Z,12.55
2024-05-09T19:03:12.791Z,11.77
2024-05-09T19:05:43.552Z,8.60
2024-05-09T19:08:12.526Z,9.77
2024-05-09T19:10:40.552Z,8.70
2024-05-09T19:13:12.035Z,10.77
2024-05-09T19:15:41.869Z,8.35
2024-05-09T19:18:10.815Z,9.95
2024-05-09T19:20:41.696Z,11.73
2024-05-09T19:23:11.013Z,11.27
2024-05-09T19:25:38.570Z,11.43
2024-05-09T19:28:06.359Z,11.20
2024-05-09T19:30:39.688Z,10.93
2024-05-09T19:33:11.288Z,10.15
2024-05-09T19:35:40.564Z,11.45
2024-05-09T19:38:08.327Z,10.98
2024-05-09T19:40:36.378Z,10.93
2024-05-09T19:43:05.609Z,11.07
2024-05-09T19:45:35.407Z,13.77
2024-05-09T19:48:04.853Z,13.85
2024-05-09T19:50:41.344Z,13.88
2024-05-09T19:53:12.121Z,14.63
2024-05-09T19:55:40.246Z,14.95
2024-05-09T19:58:08.316Z,15.98
2024-05-09T20:00:38.521Z,15.35
2024-05-09T20:03:08.951Z,15.40
2024-05-09T20:05:37.486Z,16.25
2024-05-09T20:08:05.840Z,14.60
2024-05-09T20:10:35.531Z,18.02
2024-05-09T20:15:33.128Z,17.70
2024-05-09T20:18:01.044Z,15.63
2024-05-09T20:20:36.487Z,15.82
2024-05-09T20:23:07.889Z,19.50
2024-05-09T20:25:35.548Z,16.75
2024-05-09T20:28:03.345Z,15.77
2024-05-09T20:30:33.160Z,15.70
2024-05-09T20:33:07.313Z,17.92
2024-05-09T20:35:36.501Z,15.50
2024-05-09T20:38:04.717Z,17.00
2024-05-09T20:40:36.423Z,19.05
2024-05-09T20:43:07.337Z,15.07
2024-05-09T20:45:35.633Z,12.60
2024-05-09T20:48:03.687Z,18.10
2024-05-09T20:50:38.234Z,15.75
2024-05-09T20:53:13.435Z,18.35
2024-05-09T20:55:42.218Z,19.25
2024-05-09T20:58:10.473Z,14.45
2024-05-09T21:00:42.106Z,14.75
2024-05-09T21:03:13.823Z,15.63
2024-05-09T21:05:42.692Z,16.27
2024-05-09T21:08:10.386Z,15.63
2024-05-09T21:10:38.286Z,14.93
2024-05-09T21:13:06.943Z,14.82
2024-05-09T21:15:35.594Z,13.90
2024-05-09T21:18:04.289Z,15.32
2024-05-09T21:20:34.913Z,14.35
2024-05-09T21:25:31.021Z,15.88
2024-05-09T21:27:58.818Z,13.20
2024-05-09T21:30:36.892Z,14.93
2024-05-09T21:33:10.361Z,18.73
2024-05-09T21:35:39.424Z,15.82
2024-05-09T21:38:07.897Z,14.50
2024-05-09T21:40:36.902Z,15.70
2024-05-09T21:43:05.780Z,16.48
2024-05-09T21:45:34.350Z,13.00
2024-05-09T21:48:05.440Z,13.13
2024-05-09T21:50:39.769Z,14.18
2024-05-09T21:53:09.706Z,14.00
2024-05-09T21:55:37.394Z,13.40
2024-05-09T21:58:05.192Z,15.43
2024-05-09T22:00:37.685Z,12.90
2024-05-09T22:03:10.972Z,16.13
2024-05-09T22:05:42.477Z,10.40
2024-05-09T22:10:37.796Z,12.73
2024-05-09T22:13:06.509Z,16.05
2024-05-09T22:15:39.203Z,12.30
2024-05-09T22:18:08.826Z,10.07
2024-05-09T22:20:39.410Z,10.68
2024-05-09T22:23:08.565Z,10.18
2024-05-09T22:25:40.865Z,12.15
2024-05-09T22:28:08.652Z,12.27
2024-05-09T22:30:39.265Z,11.65
2024-05-09T22:33:09.720Z,12.45
2024-05-09T22:35:44.748Z,11.13
2024-05-09T22:38:12.349Z,11.82
2024-05-09T22:40:47.279Z,15.07
2024-05-09T22:43:24.963Z,13.48
2024-05-09T22:45:55.155Z,10.48
2024-05-09T22:48:24.099Z,14.93
2024-05-09T22:50:54.007Z,11.05
2024-05-09T22:53:25.841Z,14.38
2024-05-09T22:55:53.758Z,12.88
2024-05-09T22:58:21.783Z,15.05
2024-05-09T23:00:49.659Z,11.80
2024-05-09T23:03:18.943Z,13.00
2024-05-09T23:05:46.556Z,14.88
2024-05-09T23:08:14.142Z,9.23
2024-05-09T23:10:41.787Z,13.25
2024-05-09T23:13:09.517Z,13.82
2024-05-09T23:15:40.670Z,12.32
2024-05-09T23:18:08.749Z,12.52
2024-05-09T23:20:39.168Z,15.20
2024-05-09T23:23:11.711Z,10.52
2024-05-09T23:25:41.234Z,11.95
2024-05-09T23:28:09.123Z,13.30
2024-05-09T23:30:39.847Z,14.82
2024-05-09T23:33:10.586Z,12.65
2024-05-09T23:35:38.539Z,19.05
2024-05-09T23:38:06.195Z,11.90
2024-05-09T23:40:39.513Z,16.13
2024-05-09T23:43:09.526Z,11.45
2024-05-09T23:45:37.554Z,14.05
2024-05-09T23:48:05.577Z,12.18
2024-05-09T23:50:36.551Z,10.85
2024-05-09T23:53:07.584Z,14.05
2024-05-09T23:55:36.509Z,11.45
2024-05-09T23:58:04.285Z,11.45
